Time;durP1;ratioP1;P1;durP2;ratioP2;P2;SDS_P1;SDS_P2;PMS_P1;PMS_P2;Temp;Humidity;BMP_temperature;BMP_pressure;BME280_temperature;BME280_humidity;BME280_pressure;Samples;Min_cycle;Max_cycle;Signal;HPM_P1;HPM_P2
2024/04/05 00:00:49;;;;;;;25.40;4.90;;;;;;;;;;6200818;23;20004;-96
2024/04/05 00:03:14;;;;;;;30.95;4.80;;;;;;;;;;6198148;23;20000;-94
2024/04/05 00:05:41;;;;;;;33.20;4.72;;;;;;;;;;6195876;23;20057;-95
2024/04/05 00:08:06;;;;;;;26.20;4.35;;;;;;;;;;6197304;23;20028;-95
2024/04/05 00:10:32;;;;;;;28.70;6.68;;;;;;;;;;6197183;23;20008;-96
2024/04/05 00:12:57;;;;;;;33.00;5.75;;;;;;;;;;6198119;23;20026;-96
2024/04/05 00:15:23;;;;;;;31.05;5.38;;;;;;;;;;6193580;23;20012;-95
2024/04/05 00:17:48;;;;;;;24.67;4.40;;;;;;;;;;6195024;23;20011;-96
2024/04/05 00:20:13;;;;;;;42.60;5.78;;;;;;;;;;6195768;23;20005;-96
2024/04/05 00:22:39;;;;;;;23.02;4.13;;;;;;;;;;6193888;23;19993;-95
2024/04/05 00:25:04;;;;;;;26.35;4.00;;;;;;;;;;6193774;23;20055;-95
2024/04/05 00:27:30;;;;;;;34.47;5.50;;;;;;;;;;6196564;23;20000;-95
2024/04/05 00:29:55;;;;;;;41.83;5.78;;;;;;;;;;6197663;23;20008;-96
2024/04/05 00:32:21;;;;;;;29.65;5.40;;;;;;;;;;6199750;23;20060;-95
2024/04/05 00:34:46;;;;;;;30.67;6.00;;;;;;;;;;6199493;23;20011;-96
2024/04/05 00:37:13;;;;;;;22.30;4.68;;;;;;;;;;6198342;23;20308;-96
2024/04/05 00:39:38;;;;;;;29.13;4.78;;;;;;;;;;6197352;23;20009;-95
2024/04/05 00:42:03;;;;;;;44.08;7.05;;;;;;;;;;6195250;23;19999;-96
2024/04/05 00:44:29;;;;;;;24.65;3.78;;;;;;;;;;6194078;23;19997;-95
2024/04/05 00:46:54;;;;;;;30.10;6.38;;;;;;;;;;6197122;23;20084;-96
2024/04/05 00:49:20;;;;;;;28.75;4.15;;;;;;;;;;6196138;23;20009;-96
2024/04/05 00:51:45;;;;;;;41.28;4.20;;;;;;;;;;6193336;23;19997;-96
2024/04/05 00:54:10;;;;;;;30.73;5.10;;;;;;;;;;6192950;23;20012;-96
2024/04/05 00:56:36;;;;;;;34.85;6.60;;;;;;;;;;6194157;23;20023;-96
2024/04/05 00:59:02;;;;;;;34.33;4.57;;;;;;;;;;6192832;23;20005;-96
2024/04/05 01:01:27;;;;;;;26.38;3.72;;;;;;;;;;6192175;23;20419;-95
2024/04/05 01:03:53;;;;;;;25.77;3.92;;;;;;;;;;6191306;23;20000;-95
2024/04/05 01:06:18;;;;;;;23.33;4.28;;;;;;;;;;6191440;23;20008;-96
2024/04/05 01:08:44;;;;;;;23.98;4.93;;;;;;;;;;6196467;23;19997;-96
2024/04/05 01:11:09;;;;;;;26.35;3.60;;;;;;;;;;6195446;23;20001;-95
2024/04/05 01:13:34;;;;;;;23.27;4.40;;;;;;;;;;6197471;23;20087;-96
2024/04/05 01:16:06;;;;;;;33.65;5.07;;;;;;;;;;6204494;23;20051;-96
2024/04/05 01:18:31;;;;;;;24.23;4.70;;;;;;;;;;6193966;23;20474;-96
2024/04/05 01:20:57;;;;;;;25.52;3.80;;;;;;;;;;6205960;23;20076;-95
2024/04/05 01:23:24;;;;;;;24.45;5.35;;;;;;;;;;6190670;23;20332;-95
2024/04/05 01:26:00;;;;;;;22.23;3.58;;;;;;;;;;6205480;22;20020;-95
2024/04/05 01:28:27;;;;;;;20.27;4.32;;;;;;;;;;6150517;23;20001;-96
2024/04/05 01:30:53;;;;;;;19.67;3.53;;;;;;;;;;6172574;23;20005;-96
2024/04/05 01:33:19;;;;;;;27.83;4.50;;;;;;;;;;6146292;23;20004;-96
2024/04/05 01:35:48;;;;;;;22.27;4.18;;;;;;;;;;6165646;23;20017;-95
2024/04/05 01:38:13;;;;;;;29.70;4.40;;;;;;;;;;6133166;23;20081;-95
2024/04/05 01:40:38;;;;;;;20.23;3.55;;;;;;;;;;6131802;23;20443;-96
2024/04/05 01:43:04;;;;;;;21.77;4.65;;;;;;;;;;6132081;23;20357;-95
2024/04/05 01:45:29;;;;;;;16.67;3.97;;;;;;;;;;6132610;23;19993;-96
2024/04/05 01:48:05;;;;;;;25.20;4.10;;;;;;;;;;6142319;23;20017;-96
2024/04/05 01:50:30;;;;;;;17.35;3.70;;;;;;;;;;6156562;23;20001;-96
2024/04/05 01:52:55;;;;;;;20.77;3.58;;;;;;;;;;6131803;23;20013;-96
2024/04/05 01:55:20;;;;;;;23.65;4.68;;;;;;;;;;6132497;23;20726;-95
2024/04/05 01:57:46;;;;;;;20.15;3.30;;;;;;;;;;6131787;23;20125;-96
2024/04/05 02:00:11;;;;;;;22.85;3.28;;;;;;;;;;6133550;23;20025;-96
2024/04/05 02:02:37;;;;;;;16.02;3.53;;;;;;;;;;6133026;23;20435;-96
2024/04/05 02:05:03;;;;;;;20.65;3.88;;;;;;;;;;6131943;23;20012;-96
2024/04/05 02:07:28;;;;;;;18.70;3.67;;;;;;;;;;6134320;23;19998;-96
2024/04/05 02:09:53;;;;;;;20.65;4.82;;;;;;;;;;6137969;23;20001;-96
2024/04/05 02:12:20;;;;;;;22.52;3.75;;;;;;;;;;6137849;23;20000;-96
2024/04/05 02:14:46;;;;;;;22.58;4.68;;;;;;;;;;6136571;23;20014;-96
2024/04/05 02:17:11;;;;;;;20.25;3.85;;;;;;;;;;6135604;23;20005;-96
2024/04/05 02:19:37;;;;;;;21.15;5.22;;;;;;;;;;6137971;23;20032;-96
2024/04/05 02:22:04;;;;;;;15.93;4.10;;;;;;;;;;6154029;23;20029;-96
2024/04/05 02:24:32;;;;;;;20.05;3.72;;;;;;;;;;6171935;23;20001;-96
2024/04/05 02:26:58;;;;;;;18.30;3.60;;;;;;;;;;6141574;23;20016;-96
2024/04/05 02:29:24;;;;;;;19.00;3.47;;;;;;;;;;6143964;23;20005;-96
2024/04/05 02:31:49;;;;;;;16.10;5.03;;;;;;;;;;6122243;23;20089;-96
2024/04/05 02:39:25;;;;;;;22.65;4.13;;;;;;;;;;6226686;22;20096;-96
2024/04/05 02:41:50;;;;;;;28.60;4.30;;;;;;;;;;6195876;23;20004;-95
2024/04/05 02:44:16;;;;;;;20.13;3.67;;;;;;;;;;6194305;23;20032;-95
2024/04/05 02:46:42;;;;;;;30.63;4.18;;;;;;;;;;6191066;23;20296;-95
2024/04/05 02:49:07;;;;;;;16.60;3.92;;;;;;;;;;6190875;23;20001;-95
2024/04/05 02:51:32;;;;;;;18.17;5.57;;;;;;;;;;6190337;23;20001;-95
2024/04/05 02:53:57;;;;;;;8.98;3.05;;;;;;;;;;6188913;23;20007;-96
2024/04/05 02:56:23;;;;;;;15.05;4.00;;;;;;;;;;6189556;23;20450;-95
2024/04/05 02:58:48;;;;;;;25.02;3.85;;;;;;;;;;6189520;23;20440;-95
2024/04/05 03:01:13;;;;;;;22.23;4.18;;;;;;;;;;6213869;23;20330;-94
2024/04/05 03:03:38;;;;;;;17.85;4.70;;;;;;;;;;6215301;23;20026;-94
2024/04/05 03:06:04;;;;;;;19.50;4.10;;;;;;;;;;6189033;23;20000;-95
2024/04/05 03:08:29;;;;;;;25.02;4.10;;;;;;;;;;6189297;23;20305;-95
2024/04/05 03:10:54;;;;;;;20.73;4.65;;;;;;;;;;6189861;23;20079;-95
2024/04/05 03:13:20;;;;;;;26.63;4.10;;;;;;;;;;6189284;23;20008;-95
2024/04/05 03:15:48;;;;;;;15.48;3.53;;;;;;;;;;6188994;23;20252;-96
2024/04/05 03:18:13;;;;;;;18.48;3.70;;;;;;;;;;6189627;23;20442;-96
2024/04/05 03:20:39;;;;;;;24.55;4.47;;;;;;;;;;6189154;23;20095;-95
2024/04/05 03:23:06;;;;;;;17.23;4.15;;;;;;;;;;6188955;23;20000;-95
2024/04/05 03:25:31;;;;;;;32.00;6.03;;;;;;;;;;6188814;23;20001;-94
2024/04/05 03:27:57;;;;;;;25.42;4.63;;;;;;;;;;6188947;23;20027;-95
2024/04/05 03:30:22;;;;;;;25.92;4.60;;;;;;;;;;6188549;23;20000;-94
2024/04/05 03:32:47;;;;;;;18.40;4.57;;;;;;;;;;6188584;23;20046;-95
2024/04/05 03:35:12;;;;;;;25.33;5.37;;;;;;;;;;6188671;23;20246;-95
2024/04/05 03:37:37;;;;;;;24.40;5.07;;;;;;;;;;6188661;23;20222;-95
2024/04/05 03:40:03;;;;;;;22.60;4.60;;;;;;;;;;6188237;23;20100;-93
2024/04/05 03:42:28;;;;;;;26.90;4.15;;;;;;;;;;6188634;23;20272;-95
2024/04/05 03:44:54;;;;;;;24.73;4.67;;;;;;;;;;6188673;23;20043;-95
2024/04/05 03:47:19;;;;;;;28.02;4.60;;;;;;;;;;6188719;23;20211;-93
2024/04/05 03:49:44;;;;;;;28.77;5.63;;;;;;;;;;6188793;23;20004;-95
2024/04/05 03:52:09;;;;;;;23.52;4.30;;;;;;;;;;6188991;23;20313;-94
2024/04/05 03:54:35;;;;;;;29.63;5.28;;;;;;;;;;6188636;23;20004;-94
2024/04/05 03:57:00;;;;;;;23.40;4.05;;;;;;;;;;6188900;23;19993;-95
2024/04/05 03:59:28;;;;;;;18.70;3.42;;;;;;;;;;6188652;23;20000;-95
2024/04/05 04:01:53;;;;;;;29.55;5.18;;;;;;;;;;6188297;23;20323;-95
2024/04/05 04:04:19;;;;;;;19.58;3.88;;;;;;;;;;6188495;23;20076;-94
2024/04/05 04:06:44;;;;;;;19.48;4.35;;;;;;;;;;6188485;23;20025;-94
2024/04/05 04:09:11;;;;;;;22.88;5.40;;;;;;;;;;6188230;23;20008;-94
2024/04/05 04:11:36;;;;;;;23.42;4.30;;;;;;;;;;6188247;23;20007;-94
2024/04/05 04:14:01;;;;;;;18.83;5.13;;;;;;;;;;6188401;23;20009;-94
2024/04/05 04:16:26;;;;;;;25.30;3.33;;;;;;;;;;6188309;23;19997;-95
2024/04/05 04:18:52;;;;;;;24.10;4.15;;;;;;;;;;6186493;23;20270;-94
2024/04/05 04:21:17;;;;;;;26.55;5.00;;;;;;;;;;6188134;23;20044;-94
2024/04/05 04:23:42;;;;;;;22.30;3.50;;;;;;;;;;6188028;23;20431;-94
2024/04/05 04:26:07;;;;;;;32.93;4.70;;;;;;;;;;6188260;23;20317;-94
2024/04/05 04:28:32;;;;;;;17.08;3.50;;;;;;;;;;6188277;23;20258;-96
2024/04/05 04:30:58;;;;;;;15.73;3.63;;;;;;;;;;6188129;23;19996;-94
2024/04/05 04:33:23;;;;;;;24.15;5.00;;;;;;;;;;6189046;23;20084;-94
2024/04/05 04:35:49;;;;;;;26.63;3.67;;;;;;;;;;6189327;23;20012;-93
2024/04/05 04:38:15;;;;;;;26.47;4.40;;;;;;;;;;6189506;23;20223;-94
2024/04/05 04:40:41;;;;;;;26.40;5.20;;;;;;;;;;6189512;23;20372;-92
2024/04/05 04:43:06;;;;;;;22.38;4.10;;;;;;;;;;6189466;23;20023;-92
2024/04/05 04:45:31;;;;;;;22.65;3.80;;;;;;;;;;6189231;23;20197;-92
2024/04/05 04:47:56;;;;;;;23.77;4.30;;;;;;;;;;6215757;23;19993;-93
2024/04/05 04:50:21;;;;;;;21.95;3.97;;;;;;;;;;6215823;23;20214;-92
2024/04/05 04:52:47;;;;;;;19.60;3.25;;;;;;;;;;6188929;23;20071;-93
2024/04/05 04:55:12;;;;;;;15.18;4.07;;;;;;;;;;6215618;23;20005;-92
2024/04/05 04:57:37;;;;;;;17.02;3.10;;;;;;;;;;6188997;23;19996;-92
2024/04/05 05:00:03;;;;;;;21.85;4.15;;;;;;;;;;6215580;23;20004;-92
2024/04/05 05:02:28;;;;;;;25.67;5.22;;;;;;;;;;6188993;23;19997;-92
2024/04/05 05:04:53;;;;;;;24.00;3.47;;;;;;;;;;6188787;23;20000;-92
2024/04/05 05:07:19;;;;;;;18.57;3.50;;;;;;;;;;6188695;23;20217;-92
2024/04/05 05:09:44;;;;;;;13.23;3.22;;;;;;;;;;6188648;23;20234;-92
2024/04/05 05:12:09;;;;;;;15.85;3.08;;;;;;;;;;6188708;23;20079;-91
2024/04/05 05:14:35;;;;;;;26.37;5.00;;;;;;;;;;6215309;23;20300;-91
2024/04/05 05:17:00;;;;;;;20.65;3.58;;;;;;;;;;6215231;23;20657;-92
2024/04/05 05:19:25;;;;;;;10.07;2.63;;;;;;;;;;6215414;23;20004;-92
2024/04/05 05:21:50;;;;;;;13.03;2.53;;;;;;;;;;6215234;23;20001;-92
2024/04/05 05:24:16;;;;;;;19.73;3.13;;;;;;;;;;6215201;23;20268;-92
2024/04/05 05:26:41;;;;;;;12.07;2.58;;;;;;;;;;6215227;23;20261;-91
2024/04/05 05:29:07;;;;;;;13.18;3.15;;;;;;;;;;6215570;23;19997;-91
2024/04/05 05:31:32;;;;;;;19.27;2.40;;;;;;;;;;6215450;23;19996;-91
2024/04/05 05:33:58;;;;;;;26.58;3.78;;;;;;;;;;6188584;23;20008;-92
2024/04/05 05:36:23;;;;;;;20.73;2.53;;;;;;;;;;6188942;23;20458;-92
2024/04/05 05:38:48;;;;;;;17.65;2.40;;;;;;;;;;6189179;23;20229;-93
2024/04/05 05:41:13;;;;;;;17.15;3.00;;;;;;;;;;6215587;23;20008;-93
2024/04/05 05:43:39;;;;;;;22.83;3.08;;;;;;;;;;6188520;23;20066;-93
2024/04/05 05:46:05;;;;;;;20.27;4.50;;;;;;;;;;6189275;23;20000;-94
2024/04/05 05:48:30;;;;;;;16.15;4.18;;;;;;;;;;6189471;23;20223;-94
2024/04/05 05:50:55;;;;;;;12.63;2.42;;;;;;;;;;6189298;23;20000;-94
2024/04/05 05:53:20;;;;;;;20.05;3.58;;;;;;;;;;6190741;23;20054;-94
2024/04/05 05:55:49;;;;;;;19.33;2.83;;;;;;;;;;6189714;23;20015;-93
2024/04/05 05:58:15;;;;;;;15.35;3.10;;;;;;;;;;6216142;23;20290;-93
2024/04/05 06:00:40;;;;;;;24.47;3.30;;;;;;;;;;6215409;23;20370;-95
2024/04/05 06:03:05;;;;;;;19.77;3.05;;;;;;;;;;6189873;23;20677;-94
2024/04/05 06:05:30;;;;;;;27.10;4.70;;;;;;;;;;6189468;23;20015;-94
2024/04/05 06:07:56;;;;;;;19.88;2.95;;;;;;;;;;6189406;23;19997;-93
2024/04/05 06:10:21;;;;;;;16.13;2.80;;;;;;;;;;6189679;23;20059;-93
2024/04/05 06:12:46;;;;;;;22.73;3.53;;;;;;;;;;6189756;23;20219;-93
2024/04/05 06:15:11;;;;;;;29.97;3.67;;;;;;;;;;6189730;23;20032;-93
2024/04/05 06:17:37;;;;;;;17.77;3.22;;;;;;;;;;6189419;23;20246;-93
2024/04/05 06:20:06;;;;;;;24.35;3.80;;;;;;;;;;6190044;23;20091;-92
2024/04/05 06:22:32;;;;;;;15.18;2.85;;;;;;;;;;6189036;23;19997;-94
2024/04/05 06:24:57;;;;;;;22.98;3.22;;;;;;;;;;6189332;23;19996;-91
2024/04/05 06:27:23;;;;;;;23.02;3.55;;;;;;;;;;6215633;23;19997;-95
2024/04/05 06:29:51;;;;;;;23.00;3.03;;;;;;;;;;6189168;23;20328;-94
2024/04/05 06:32:17;;;;;;;27.33;3.22;;;;;;;;;;6196766;23;20329;-94
2024/04/05 06:34:42;;;;;;;20.77;3.50;;;;;;;;;;6190054;23;20439;-93
2024/04/05 06:37:08;;;;;;;17.40;3.58;;;;;;;;;;6187615;23;19996;-92
2024/04/05 06:39:42;;;;;;;23.75;3.40;;;;;;;;;;6192438;23;20015;-96
2024/04/05 06:42:08;;;;;;;24.40;6.00;;;;;;;;;;6182838;23;20033;-94
2024/04/05 06:44:39;;;;;;;31.05;5.55;;;;;;;;;;6152933;23;20008;-94
2024/04/05 06:47:05;;;;;;;28.13;3.17;;;;;;;;;;6166281;23;19994;-95
2024/04/05 06:49:33;;;;;;;20.10;3.67;;;;;;;;;;6207210;22;20012;-94
2024/04/05 06:52:04;;;;;;;24.67;3.88;;;;;;;;;;6190305;23;20442;-95
2024/04/05 06:54:30;;;;;;;20.75;3.40;;;;;;;;;;6189550;23;20015;-93
2024/04/05 06:57:07;;;;;;;18.08;2.97;;;;;;;;;;6190482;23;20075;-96
2024/04/05 06:59:33;;;;;;;26.67;4.15;;;;;;;;;;6189635;23;20074;-94
2024/04/05 07:01:58;;;;;;;24.42;4.13;;;;;;;;;;6187725;23;20412;-92
2024/04/05 07:04:25;;;;;;;21.90;4.38;;;;;;;;;;6188397;23;20004;-95
2024/04/05 07:06:50;;;;;;;28.58;4.63;;;;;;;;;;6190912;23;19992;-95
2024/04/05 07:09:17;;;;;;;24.75;3.92;;;;;;;;;;6190216;23;20492;-95
2024/04/05 07:11:44;;;;;;;29.60;6.88;;;;;;;;;;6189817;23;20007;-96
2024/04/05 07:14:09;;;;;;;28.38;4.15;;;;;;;;;;6191931;23;19997;-95
2024/04/05 07:16:34;;;;;;;27.33;4.95;;;;;;;;;;6188357;23;20010;-94
2024/04/05 07:18:59;;;;;;;20.05;3.83;;;;;;;;;;6189150;23;20001;-94
2024/04/05 07:21:26;;;;;;;22.23;3.95;;;;;;;;;;6190090;23;20008;-94
2024/04/05 07:23:55;;;;;;;20.83;4.15;;;;;;;;;;6185363;23;20021;-96
2024/04/05 07:26:29;;;;;;;21.15;3.22;;;;;;;;;;6157371;23;20006;-96
2024/04/05 07:31:49;;;;;;;22.52;4.38;;;;;;;;;;6176408;22;20453;-95
2024/04/05 07:34:17;;;;;;;24.98;4.43;;;;;;;;;;6167758;23;20017;-94
2024/04/05 07:36:44;;;;;;;23.27;4.50;;;;;;;;;;6159097;23;20059;-94
2024/04/05 07:39:09;;;;;;;24.98;3.90;;;;;;;;;;6157101;23;20088;-96
2024/04/05 07:41:34;;;;;;;28.40;4.65;;;;;;;;;;6156461;23;19994;-94
2024/04/05 07:44:00;;;;;;;32.15;4.22;;;;;;;;;;6157010;23;20005;-95
2024/04/05 07:46:27;;;;;;;22.90;5.47;;;;;;;;;;6157714;23;20092;-95
2024/04/05 07:48:52;;;;;;;29.17;4.75;;;;;;;;;;6167176;23;20005;-94
2024/04/05 07:51:17;;;;;;;29.00;4.53;;;;;;;;;;6159357;23;20148;-96
2024/04/05 07:53:45;;;;;;;27.27;4.13;;;;;;;;;;6162444;23;20012;-96
2024/04/05 07:56:10;;;;;;;24.85;4.30;;;;;;;;;;6156914;23;20013;-96
2024/04/05 07:58:35;;;;;;;25.23;4.93;;;;;;;;;;6181414;23;20002;-95
2024/04/05 08:01:02;;;;;;;35.58;5.30;;;;;;;;;;6178391;23;20006;-95
2024/04/05 08:03:27;;;;;;;39.75;5.68;;;;;;;;;;6176970;23;19997;-96
2024/04/05 08:05:53;;;;;;;32.42;5.80;;;;;;;;;;6177284;23;20001;-96
2024/04/05 08:08:18;;;;;;;33.92;5.20;;;;;;;;;;6177992;23;20012;-94
2024/04/05 08:10:43;;;;;;;25.92;4.97;;;;;;;;;;6178338;23;20001;-94
2024/04/05 08:13:08;;;;;;;27.70;5.05;;;;;;;;;;6178484;23;20000;-96
2024/04/05 08:15:36;;;;;;;33.45;5.95;;;;;;;;;;6179032;23;20010;-95
2024/04/05 08:18:01;;;;;;;22.77;4.40;;;;;;;;;;6177702;23;19994;-95
2024/04/05 08:20:26;;;;;;;28.50;5.43;;;;;;;;;;6178564;23;20017;-96
2024/04/05 08:22:52;;;;;;;26.48;5.32;;;;;;;;;;6177759;23;20328;-96
2024/04/05 08:25:17;;;;;;;29.73;5.90;;;;;;;;;;6178316;23;20340;-95
2024/04/05 08:27:43;;;;;;;34.83;6.15;;;;;;;;;;6178334;23;20011;-95
2024/04/05 08:30:12;;;;;;;27.25;5.05;;;;;;;;;;6178047;23;19992;-95
2024/04/05 08:32:37;;;;;;;27.50;4.43;;;;;;;;;;6178152;23;20080;-95
2024/04/05 08:35:04;;;;;;;31.02;5.55;;;;;;;;;;6176626;23;20040;-95
2024/04/05 08:37:29;;;;;;;36.72;5.43;;;;;;;;;;6178657;23;19998;-95
2024/04/05 08:39:54;;;;;;;31.77;6.35;;;;;;;;;;6178510;23;20012;-94
2024/04/05 08:42:19;;;;;;;29.03;4.60;;;;;;;;;;6178511;23;20365;-94
2024/04/05 08:44:47;;;;;;;28.90;5.30;;;;;;;;;;6178645;23;20227;-94
2024/04/05 08:47:12;;;;;;;36.60;6.45;;;;;;;;;;6177928;23;19997;-96
2024/04/05 08:49:37;;;;;;;40.10;5.57;;;;;;;;;;6178976;23;20406;-94
2024/04/05 08:52:03;;;;;;;36.70;7.00;;;;;;;;;;6178277;23;20065;-95
2024/04/05 08:54:32;;;;;;;29.55;5.00;;;;;;;;;;6179868;23;20128;-94
2024/04/05 08:57:00;;;;;;;40.28;5.93;;;;;;;;;;6180480;23;20084;-95
2024/04/05 08:59:28;;;;;;;29.33;5.30;;;;;;;;;;6180570;23;20060;-95
2024/04/05 09:01:55;;;;;;;33.28;4.82;;;;;;;;;;6181296;23;20088;-95
2024/04/05 09:04:20;;;;;;;35.85;5.82;;;;;;;;;;6181203;23;20033;-95
2024/04/05 09:06:45;;;;;;;35.90;5.60;;;;;;;;;;6180828;23;20001;-95
2024/04/05 09:09:23;;;;;;;28.17;5.38;;;;;;;;;;6184316;23;20232;-96
2024/04/05 09:11:48;;;;;;;33.53;5.53;;;;;;;;;;6185865;23;20028;-96
2024/04/05 09:14:15;;;;;;;37.47;5.63;;;;;;;;;;6199198;23;20045;-96
2024/04/05 09:16:57;;;;;;;40.20;7.03;;;;;;;;;;6198457;23;20259;-96
2024/04/05 09:22:07;;;;;;;38.08;6.25;;;;;;;;;;6223620;22;20020;-96
2024/04/05 09:24:32;;;;;;;28.88;5.85;;;;;;;;;;6205793;23;20016;-96
2024/04/05 09:27:06;;;;;;;32.78;5.90;;;;;;;;;;6232404;23;19988;-95
2024/04/05 09:29:34;;;;;;;31.02;7.03;;;;;;;;;;6232582;23;20010;-96
2024/04/05 09:32:15;;;;;;;34.03;6.53;;;;;;;;;;6258582;23;20024;-96
2024/04/05 09:34:41;;;;;;;29.33;6.13;;;;;;;;;;6229060;23;20011;-96
2024/04/05 09:37:07;;;;;;;32.45;6.43;;;;;;;;;;6223140;23;19997;-96
2024/04/05 09:39:33;;;;;;;24.52;5.43;;;;;;;;;;6226172;23;20028;-96
2024/04/05 09:41:59;;;;;;;28.27;6.43;;;;;;;;;;6218201;23;20058;-96
2024/04/05 09:44:24;;;;;;;37.15;6.47;;;;;;;;;;6218456;23;20094;-96
2024/04/05 09:46:52;;;;;;;31.83;6.47;;;;;;;;;;6216772;23;20008;-96
2024/04/05 09:49:17;;;;;;;28.42;6.20;;;;;;;;;;6216414;23;20000;-96
2024/04/05 09:51:48;;;;;;;37.42;6.90;;;;;;;;;;6217524;23;20419;-95
2024/04/05 09:54:15;;;;;;;37.17;6.75;;;;;;;;;;6244834;23;20004;-95
2024/04/05 09:56:41;;;;;;;38.67;7.28;;;;;;;;;;6217873;23;20028;-96
2024/04/05 09:59:17;;;;;;;38.17;6.60;;;;;;;;;;6219213;23;20054;-96
2024/04/05 10:01:46;;;;;;;34.60;7.82;;;;;;;;;;6222556;23;20000;-96
2024/04/05 10:04:11;;;;;;;34.50;6.35;;;;;;;;;;6224169;23;19996;-96
2024/04/05 10:06:40;;;;;;;33.25;5.70;;;;;;;;;;6227835;23;20004;-96
2024/04/05 10:09:22;;;;;;;30.50;6.78;;;;;;;;;;6235907;23;20006;-96
2024/04/05 10:11:52;;;;;;;31.83;5.95;;;;;;;;;;6264133;23;20012;-96
2024/04/05 10:14:36;;;;;;;32.60;7.15;;;;;;;;;;6234096;23;19996;-96
2024/04/05 10:17:27;;;;;;;31.27;5.75;;;;;;;;;;6234532;23;20019;-96
2024/04/05 10:20:01;;;;;;;28.73;5.55;;;;;;;;;;6257893;23;20001;-96
2024/04/05 10:22:26;;;;;;;33.22;6.50;;;;;;;;;;6236572;23;20012;-96
2024/04/05 10:24:52;;;;;;;37.58;6.43;;;;;;;;;;6233207;23;20054;-96
2024/04/05 10:27:24;;;;;;;35.65;6.00;;;;;;;;;;6229528;23;19996;-96
2024/04/05 10:30:00;;;;;;;31.90;5.57;;;;;;;;;;6232056;23;20000;-96
2024/04/05 10:32:26;;;;;;;38.70;7.07;;;;;;;;;;6235973;23;20343;-96
2024/04/05 10:34:51;;;;;;;33.08;6.80;;;;;;;;;;6237274;23;20077;-96
2024/04/05 10:37:17;;;;;;;36.85;6.07;;;;;;;;;;6236131;23;20071;-96
2024/04/05 10:39:43;;;;;;;28.70;6.22;;;;;;;;;;6237508;23;20035;-96
2024/04/05 10:42:08;;;;;;;33.97;6.63;;;;;;;;;;6213862;23;20003;-96
2024/04/05 10:44:36;;;;;;;26.67;5.03;;;;;;;;;;6238010;23;20040;-96
2024/04/05 10:47:03;;;;;;;34.80;7.53;;;;;;;;;;6266608;23;20035;-96
2024/04/05 10:49:31;;;;;;;32.55;6.13;;;;;;;;;;6243770;23;20431;-96
2024/04/05 10:52:24;;;;;;;32.08;6.10;;;;;;;;;;6268944;22;19984;-96
2024/04/05 10:54:53;;;;;;;37.92;6.95;;;;;;;;;;6242434;23;20024;-96
2024/04/05 10:57:25;;;;;;;30.38;6.50;;;;;;;;;;6238068;23;20000;-96
2024/04/05 10:59:51;;;;;;;37.30;6.80;;;;;;;;;;6240040;23;19985;-96
2024/04/05 11:02:18;;;;;;;28.80;6.40;;;;;;;;;;6240620;23;20004;-96
2024/04/05 11:04:43;;;;;;;26.27;5.25;;;;;;;;;;6239460;23;20004;-96
2024/04/05 11:07:16;;;;;;;35.42;5.60;;;;;;;;;;6240652;23;20064;-96
2024/04/05 11:12:51;;;;;;;37.70;5.85;;;;;;;;;;6226446;22;20031;-96
2024/04/05 11:15:21;;;;;;;29.48;5.43;;;;;;;;;;6227804;23;20510;-96
2024/04/05 11:17:59;;;;;;;28.38;5.50;;;;;;;;;;6234108;23;20027;-96
2024/04/05 11:20:30;;;;;;;30.08;4.72;;;;;;;;;;6264947;23;20012;-96
2024/04/05 11:39:04;;;;;;;35.95;5.90;;;;;;;;;;6189956;23;20825;-95
2024/04/05 11:59:44;;;;;;;38.67;7.78;;;;;;;;;;6206775;22;20017;-96
2024/04/05 12:02:10;;;;;;;37.80;7.70;;;;;;;;;;6200270;23;19997;-96
2024/04/05 12:04:36;;;;;;;37.03;7.28;;;;;;;;;;6186501;23;20031;-95
2024/04/05 14:12:05;;;;;;;37.28;7.78;;;;;;;;;;6226403;22;20059;-96
2024/04/05 15:57:10;;;;;;;38.33;6.60;;;;;;;;;;6216743;22;20023;-94
2024/04/05 15:59:35;;;;;;;32.13;5.82;;;;;;;;;;6188581;23;20323;-95
2024/04/05 16:04:47;;;;;;;26.63;5.22;;;;;;;;;;6227132;22;20059;-95
2024/04/05 16:07:13;;;;;;;33.05;6.68;;;;;;;;;;6184715;23;20009;-94
2024/04/05 16:09:38;;;;;;;34.03;6.15;;;;;;;;;;6184659;23;19993;-93
2024/04/05 16:12:04;;;;;;;26.52;5.15;;;;;;;;;;6191250;23;20416;-95
2024/04/05 16:17:10;;;;;;;43.70;5.65;;;;;;;;;;6223388;22;20024;-95
2024/04/05 16:19:36;;;;;;;34.85;6.28;;;;;;;;;;6222144;23;20092;-92
2024/04/05 16:22:01;;;;;;;37.70;6.00;;;;;;;;;;6219210;23;20272;-95
2024/04/05 16:24:27;;;;;;;32.58;5.32;;;;;;;;;;6213570;23;20012;-95
2024/04/05 16:26:53;;;;;;;41.90;7.43;;;;;;;;;;6216604;23;20031;-96
2024/04/05 16:29:18;;;;;;;38.78;4.47;;;;;;;;;;6219455;23;20004;-95
2024/04/05 16:31:43;;;;;;;44.67;6.35;;;;;;;;;;6216121;23;20007;-95
2024/04/05 16:34:12;;;;;;;37.37;8.33;;;;;;;;;;6217880;23;20032;-94
2024/04/05 16:36:40;;;;;;;44.72;6.55;;;;;;;;;;6231637;22;20245;-96
2024/04/05 16:39:06;;;;;;;44.85;7.53;;;;;;;;;;6244753;22;20012;-92
2024/04/05 16:41:31;;;;;;;40.25;6.70;;;;;;;;;;6219755;23;20000;-91
2024/04/05 16:43:56;;;;;;;43.35;7.40;;;;;;;;;;6192077;23;20008;-93
2024/04/05 16:46:22;;;;;;;44.63;7.50;;;;;;;;;;6191715;23;19996;-94
2024/04/05 16:48:47;;;;;;;42.05;6.63;;;;;;;;;;6215222;23;20222;-93
2024/04/05 16:51:13;;;;;;;43.05;6.72;;;;;;;;;;6215902;23;20416;-94
2024/04/05 16:53:39;;;;;;;35.28;5.40;;;;;;;;;;6192892;23;20001;-96
2024/04/05 16:56:11;;;;;;;35.40;6.38;;;;;;;;;;6218872;23;20012;-96
2024/04/05 16:58:37;;;;;;;26.17;5.30;;;;;;;;;;6215500;23;19996;-94
2024/04/05 17:01:04;;;;;;;41.55;6.75;;;;;;;;;;6215660;23;19996;-93
2024/04/05 17:03:30;;;;;;;46.22;5.68;;;;;;;;;;6220680;23;20016;-94
2024/04/05 17:05:56;;;;;;;42.55;6.80;;;;;;;;;;6195714;23;20005;-93
2024/04/05 17:08:21;;;;;;;38.25;6.78;;;;;;;;;;6187689;23;20429;-95
2024/04/05 17:10:52;;;;;;;44.22;6.78;;;;;;;;;;6194603;23;20005;-93
2024/04/05 17:13:50;;;;;;;35.10;6.67;;;;;;;;;;6190199;23;20005;-94
2024/04/05 17:16:16;;;;;;;46.00;6.93;;;;;;;;;;6188829;23;20012;-96
2024/04/05 17:18:45;;;;;;;41.65;7.15;;;;;;;;;;6196955;23;20008;-96
2024/04/05 17:21:13;;;;;;;55.25;7.90;;;;;;;;;;6200603;23;20040;-96
2024/04/05 17:23:38;;;;;;;37.72;6.82;;;;;;;;;;6199171;23;19997;-96
2024/04/05 17:26:04;;;;;;;37.53;6.50;;;;;;;;;;6202232;23;20486;-96
2024/04/05 17:28:30;;;;;;;48.65;8.27;;;;;;;;;;6194866;23;19997;-96
2024/04/05 17:30:56;;;;;;;49.72;7.30;;;;;;;;;;6188082;23;20020;-96
2024/04/05 17:33:21;;;;;;;50.72;7.95;;;;;;;;;;6165428;23;19997;-94
2024/04/05 17:35:50;;;;;;;46.83;7.57;;;;;;;;;;6163389;23;20013;-94
2024/04/05 17:38:15;;;;;;;52.42;6.20;;;;;;;;;;6182422;23;20052;-92
2024/04/05 17:40:41;;;;;;;44.22;6.75;;;;;;;;;;6158877;23;20001;-94
2024/04/05 17:43:06;;;;;;;43.47;8.27;;;;;;;;;;6184401;23;20076;-92
2024/04/05 17:45:31;;;;;;;31.00;5.82;;;;;;;;;;6184366;23;20428;-94
2024/04/05 17:47:57;;;;;;;30.25;5.35;;;;;;;;;;6183943;23;19993;-91
2024/04/05 17:50:23;;;;;;;40.83;6.45;;;;;;;;;;6186670;23;20048;-95
2024/04/05 17:55:28;;;;;;;32.47;5.72;;;;;;;;;;6194520;22;20084;-96
2024/04/05 17:57:53;;;;;;;29.05;5.13;;;;;;;;;;6214703;23;20001;-95
2024/04/05 18:00:18;;;;;;;38.90;6.35;;;;;;;;;;6241435;23;20301;-96
2024/04/05 18:02:47;;;;;;;37.65;5.60;;;;;;;;;;6239747;23;20004;-95
2024/04/05 18:05:13;;;;;;;35.83;6.50;;;;;;;;;;6241980;23;20031;-96
2024/04/05 18:07:38;;;;;;;43.22;5.82;;;;;;;;;;6245402;22;19993;-96
2024/04/05 18:10:03;;;;;;;30.40;4.30;;;;;;;;;;6246341;23;20084;-95
2024/04/05 18:12:29;;;;;;;24.63;4.18;;;;;;;;;;6241800;23;20004;-93
2024/04/05 18:14:54;;;;;;;28.52;6.38;;;;;;;;;;6242611;23;20092;-96
2024/04/05 18:17:19;;;;;;;25.98;4.38;;;;;;;;;;6243338;22;20003;-94
2024/04/05 18:19:44;;;;;;;26.63;4.60;;;;;;;;;;6242898;23;20016;-96
2024/04/05 18:22:10;;;;;;;28.27;4.93;;;;;;;;;;6241500;23;20212;-95
2024/04/05 18:24:38;;;;;;;27.25;4.30;;;;;;;;;;6245571;23;20028;-95
2024/04/05 18:27:03;;;;;;;32.53;5.03;;;;;;;;;;6244060;22;19996;-93
2024/04/05 18:29:29;;;;;;;32.13;5.57;;;;;;;;;;6245526;23;19997;-95
2024/04/05 18:31:55;;;;;;;34.05;4.40;;;;;;;;;;6248351;23;20324;-95
2024/04/05 18:34:21;;;;;;;23.70;4.18;;;;;;;;;;6243716;23;20031;-96
2024/04/05 18:36:46;;;;;;;32.63;4.85;;;;;;;;;;6215008;23;20432;-95
2024/04/05 18:39:12;;;;;;;23.90;4.72;;;;;;;;;;6256548;23;20011;-95
2024/04/05 18:41:37;;;;;;;28.30;5.05;;;;;;;;;;6252758;23;20092;-96
2024/04/05 18:44:05;;;;;;;24.05;3.70;;;;;;;;;;6227745;22;20470;-95
2024/04/05 18:46:38;;;;;;;29.88;4.50;;;;;;;;;;6190703;23;19992;-94
2024/04/05 18:49:04;;;;;;;18.42;3.60;;;;;;;;;;6190205;23;20007;-93
2024/04/05 18:51:30;;;;;;;26.27;4.93;;;;;;;;;;6192912;23;20072;-94
2024/04/05 18:53:56;;;;;;;24.38;5.00;;;;;;;;;;6190737;23;20050;-95
2024/04/05 18:56:22;;;;;;;23.60;4.10;;;;;;;;;;6190489;23;20008;-96
2024/04/05 18:58:48;;;;;;;26.70;4.30;;;;;;;;;;6190027;23;20087;-96
2024/04/05 19:01:13;;;;;;;28.60;3.83;;;;;;;;;;6189696;23;20032;-95
2024/04/05 19:03:42;;;;;;;26.63;4.15;;;;;;;;;;6189203;23;19992;-94
2024/04/05 19:06:09;;;;;;;31.35;5.28;;;;;;;;;;6188933;23;20493;-95
2024/04/05 19:08:34;;;;;;;34.35;4.82;;;;;;;;;;6189545;23;20001;-94
2024/04/05 19:11:00;;;;;;;35.03;6.20;;;;;;;;;;6189455;23;20054;-94